Cosco Nagoya — 3ESJ8 — position and weather

sailwx.info

Track history (hours):
 
Tides and Currents Weather Stations Pressure Air Temp Water Temp Dewpoint Dewpoint Depression Visibility Wind Speed Wind Dir Waves Ship Positions

Cosco Nagoya

Last reported at 2014-Jul-17 17:15 UTC. Time now 2014-Jul-23 13:31 UTC.
Position N 50°01' W 001°43'.

Length 260 m; draft 11.6 m.

Type: Cargo ship. MMSI: 370320000.

Date/timePositionNaut miles runAvg speedWind from/ knotsBaromVisibWave heightAir tempDewpointWater temp
2014-Jul-17 17:15N 50°01' W 001°43'1620.2
2014-Jul-17 16:27N 49°54' W 001°20'1921.7
2014-Jul-17 15:33N 49°46' W 000°53'1919.1
2014-Jul-17 14:33N 49°37' W 000°27'1716.6
2014-Jul-17 13:33N 49°31' W 000°03'9 9.3
2014-Jul-17 12:33N 49°27' E 000°10'0 0.0
2014-Jul-17 11:31N 49°27' E 000°10'0 0.0
2014-Jul-17 10:31N 49°27' E 000°10'0 0.0
2014-Jul-17 09:31N 49°27' E 000°10'0 0.0
2014-Jul-17 08:31N 49°27' E 000°10'0 0.0
2014-Jul-17 07:31N 49°27' E 000°10'0 0.0
2014-Jul-17 06:31N 49°27' E 000°10'0 0.0
2014-Jul-17 05:31N 49°27' E 000°10'0 0.0
2014-Jul-17 04:31N 49°27' E 000°10'0 0.0
2014-Jul-17 03:31N 49°27' E 000°10'0 0.0
2014-Jul-17 02:31N 49°27' E 000°10'0 0.0
2014-Jul-17 01:31N 49°27' E 000°10'0 0.0
2014-Jul-17 00:31N 49°27' E 000°10'0 0.0
2014-Jul-16 23:31N 49°27' E 000°10'1 0.6
2014-Jul-16 22:33N 49°27' E 000°09'1110.9
2014-Jul-16 21:33N 49°31' W 000°06'1312.5
2014-Jul-16 20:33N 49°43' W 000°12'1919.3
2014-Jul-16 19:33N 50°03' W 000°10'2019.7
2014-Jul-16 18:33N 50°22' W 000°06'1818.4
2014-Jul-16 17:33N 50°32' E 000°18'1919.4
2014-Jul-16 16:33N 50°41' E 000°45'2019.8
2014-Jul-16 15:33N 50°54' E 001°09'1716.6
2014-Jul-16 14:33N 51°05' E 001°29'1716.7
2014-Jul-16 13:33N 51°16' E 001°48'1919.4
2014-Jul-16 12:33N 51°33' E 002°05'2120.8
2014-Jul-16 11:34N 51°48' E 002°28'2020.2
2014-Jul-16 10:33N 52°02' E 002°51'2019.4
2014-Jul-16 09:33N 52°03' E 003°23'1818.3
2014-Jul-16 08:33N 52°03' E 003°53'9 9.5
2014-Jul-16 07:33N 51°57' E 004°05'1 1.2
2014-Jul-16 06:30N 51°57' E 004°03'0 0.0
2014-Jul-16 05:33N 51°57' E 004°03'0 0.0
2014-Jul-16 04:33N 51°57' E 004°03'0 0.0
2014-Jul-16 03:30N 51°57' E 004°03'0 0.0
2014-Jul-16 02:33N 51°57' E 004°03'0 0.0
2014-Jul-16 01:33N 51°57' E 004°03'0 0.0
2014-Jul-16 00:33N 51°57' E 004°03'0 0.0
2014-Jul-15 23:33N 51°57' E 004°03'0 0.0
2014-Jul-15 22:33N 51°57' E 004°03'0 0.0
2014-Jul-15 21:33N 51°57' E 004°03'0 0.0
2014-Jul-15 20:33N 51°57' E 004°03'0 0.0
2014-Jul-15 19:33N 51°57' E 004°03'0 0.0
2014-Jul-15 18:33N 51°57' E 004°03'0 0.0
2014-Jul-15 17:33N 51°57' E 004°03'0 0.0
2014-Jul-15 16:33N 51°57' E 004°03'0 0.0
2014-Jul-15 15:33N 51°57' E 004°03'0 0.0
2014-Jul-15 14:30N 51°57' E 004°03'0 0.0
2014-Jul-15 13:33N 51°57' E 004°03'0 0.0
2014-Jul-15 12:30N 51°57' E 004°03'0 0.0
2014-Jul-15 11:33N 51°57' E 004°03'0 0.0
2014-Jul-15 10:30N 51°57' E 004°03'0 0.0
2014-Jul-15 09:29N 51°57' E 004°03'0 0.0
2014-Jul-15 08:32N 51°57' E 004°03'0 0.0
2014-Jul-15 07:32N 51°57' E 004°03'0 0.0
2014-Jul-15 06:32N 51°57' E 004°03'0 0.0
2014-Jul-15 05:32N 51°57' E 004°03'0 0.0
2014-Jul-15 04:32N 51°57' E 004°03'0 0.0
2014-Jul-15 03:29N 51°57' E 004°03'0 0.0
2014-Jul-15 02:32N 51°57' E 004°03'0 0.0
2014-Jul-15 01:32N 51°57' E 004°03'0 0.0
2014-Jul-15 00:32N 51°57' E 004°03'0 0.0
2014-Jul-14 23:32N 51°57' E 004°03'0 0.0
2014-Jul-14 22:32N 51°57' E 004°03'0 0.0
2014-Jul-14 21:29N 51°57' E 004°03'0 0.0
2014-Jul-14 20:32N 51°57' E 004°03'0 0.0
2014-Jul-14 19:32N 51°57' E 004°03'2 1.6
2014-Jul-14 18:33N 51°57' E 004°05'9 8.5
2014-Jul-14 17:33N 52°01' E 003°53'7 7.1
2014-Jul-14 16:33N 52°06' E 003°45'3 2.5
2014-Jul-14 15:32N 52°09' E 003°43'0 0.0
2014-Jul-14 14:32N 52°09' E 003°43'0 0.1
2014-Jul-14 13:32N 52°09' E 003°43'0 0.2
2014-Jul-14 12:26N 52°08' E 003°43'0 0.1
2014-Jul-14 11:32N 52°08' E 003°43'0 0.0
2014-Jul-14 10:32N 52°08' E 003°43'0 0.0
2014-Jul-14 09:29N 52°08' E 003°43'0 0.0
2014-Jul-14 08:32N 52°08' E 003°43'0 0.1
2014-Jul-14 07:32N 52°08' E 003°43'0 0.1
2014-Jul-14 06:21N 52°09' E 003°43'0 0.1
2014-Jul-14 05:33N 52°09' E 003°43'0 0.0
2014-Jul-14 04:32N 52°09' E 003°43'0 0.0
2014-Jul-14 03:29N 52°09' E 003°43'0 0.0
2014-Jul-14 02:29N 52°09' E 003°43'0 0.1
2014-Jul-14 01:32N 52°09' E 003°43'0 0.1
2014-Jul-14 00:29N 52°08' E 003°43'0 0.1
2014-Jul-13 23:33N 52°08' E 003°43'0 0.0
2014-Jul-13 22:32N 52°08' E 003°43'0 0.0
2014-Jul-13 21:33N 52°08' E 003°43'0 0.0
2014-Jul-13 20:32N 52°08' E 003°43'0 0.2
2014-Jul-13 19:08N 52°09' E 003°43'0 0.2
2014-Jul-13 18:32N 52°09' E 003°43'0 0.0
2014-Jul-13 17:32N 52°09' E 003°43'0 0.0
2014-Jul-13 16:32N 52°09' E 003°43'0 0.0
2014-Jul-13 15:32N 52°09' E 003°43'0 0.0
2014-Jul-13 14:32N 52°09' E 003°43'0 0.0
2014-Jul-13 13:32N 52°09' E 003°43'0 0.0
2014-Jul-13 12:29N 52°09' E 003°43'0 0.2
2014-Jul-13 11:26N 52°08' E 003°43'0 0.0
2014-Jul-13 10:32N 52°09' E 003°43'0 0.0
2014-Jul-13 09:32N 52°09' E 003°43'0 0.0
2014-Jul-13 08:32N 52°09' E 003°43'0 0.1
2014-Jul-13 07:32N 52°08' E 003°43'0 0.2
2014-Jul-13 06:32N 52°09' E 003°43'0 0.0
2014-Jul-13 05:32N 52°09' E 003°43'0 0.0
2014-Jul-13 04:32N 52°09' E 003°43'0 0.0
2014-Jul-13 03:32N 52°09' E 003°43'0 0.0
2014-Jul-13 02:32N 52°09' E 003°43'0 0.0
2014-Jul-13 01:32N 52°09' E 003°43'0 0.0
2014-Jul-13 00:32N 52°09' E 003°43'0 0.2
2014-Jul-12 23:32N 52°08' E 003°43'0 0.1
2014-Jul-12 22:33N 52°08' E 003°43'0 0.0
2014-Jul-12 21:32N 52°08' E 003°43'0 0.0
2014-Jul-12 20:32N 52°08' E 003°43'0 0.0
2014-Jul-12 19:32N 52°08' E 003°43'0 0.1
2014-Jul-12 18:32N 52°08' E 003°43'0 0.2
2014-Jul-12 17:32N 52°09' E 003°43'0 0.1
2014-Jul-12 16:32N 52°09' E 003°43'0 0.0
2014-Jul-12 15:33N 52°09' E 003°43'0 0.0
2014-Jul-12 14:33N 52°09' E 003°43'0 0.0
2014-Jul-12 13:32N 52°09' E 003°43'0 0.0
2014-Jul-12 12:30N 52°09' E 003°43'0 0.2
2014-Jul-12 11:32N 52°08' E 003°43'0 0.1
2014-Jul-12 10:32N 52°08' E 003°43'0 0.0
2014-Jul-12 09:29N 52°08' E 003°43'0 0.0
2014-Jul-12 08:32N 52°08' E 003°43'0 0.0
2014-Jul-12 07:32N 52°08' E 003°43'1 0.8
2014-Jul-12 06:32N 52°09' E 003°44'1010.1
2014-Jul-12 05:33N 52°18' E 003°47'1615.7
2014-Jul-12 04:33N 52°34' E 003°52'1514.9
2014-Jul-12 03:33N 52°48' E 003°57'1413.9
2014-Jul-12 02:33N 53°01' E 004°06'1515.1
2014-Jul-12 01:33N 53°11' E 004°25'1616.3
2014-Jul-12 00:33N 53°26' E 004°36'1616.3
2014-Jul-11 23:33N 53°34' E 005°01'1716.9
2014-Jul-11 22:33N 53°40' E 005°27'1616.3
2014-Jul-11 21:33N 53°45' E 005°53'1515.3
2014-Jul-11 20:33N 53°49' E 006°18'1514.6
2014-Jul-11 19:33N 53°54' E 006°42'1514.6
2014-Jul-11 18:33N 53°56' E 007°06'1616.5
2014-Jul-11 17:33N 53°59' E 007°34'1211.5
2014-Jul-11 16:31N 53°52' E 007°51'1414.9
2014-Jul-11 15:33N 53°45' E 008°12'1515.3
2014-Jul-11 14:33N 53°35' E 008°31'0 0.5
2014-Jul-11 13:31N 53°35' E 008°32'0 0.0
2014-Jul-11 12:31N 53°35' E 008°32'0 0.0
2014-Jul-11 11:31N 53°35' E 008°32'0 0.0
2014-Jul-11 10:31N 53°35' E 008°32'0 0.0
2014-Jul-11 09:31N 53°35' E 008°32'0 0.0
2014-Jul-11 08:31N 53°35' E 008°32'0 0.0
2014-Jul-11 07:31N 53°35' E 008°32'0 0.0
2014-Jul-11 06:31N 53°35' E 008°32'0 0.0
2014-Jul-11 05:31N 53°35' E 008°32'0 0.0
2014-Jul-11 04:31N 53°35' E 008°32'0 0.0
2014-Jul-11 03:31N 53°35' E 008°32'0 0.0
2014-Jul-11 02:31N 53°35' E 008°32'0 0.0
2014-Jul-11 01:31N 53°35' E 008°32'0 0.0
2014-Jul-11 00:31N 53°35' E 008°32'0 0.0
2014-Jul-10 23:31N 53°35' E 008°32'0 0.0
2014-Jul-10 22:31N 53°35' E 008°32'0 0.0
2014-Jul-10 21:31N 53°35' E 008°32'0 0.0
2014-Jul-10 20:31N 53°35' E 008°32'0 0.0
2014-Jul-10 19:31N 53°35' E 008°32'0 0.0
2014-Jul-10 18:31N 53°35' E 008°32'0 0.0
2014-Jul-10 17:31N 53°35' E 008°32'0 0.0
2014-Jul-10 16:31N 53°35' E 008°32'2 1.8
2014-Jul-10 15:33N 53°36' E 008°30'1515.5
2014-Jul-10 14:33N 53°46' E 008°10'1514.6
2014-Jul-10 13:33N 53°53' E 007°48'1010.3
2014-Jul-10 12:33N 53°54' E 007°30'3015.3
2014-Jul-10 10:33N 53°48' E 006°40'2016.3
2014-Jul-10 09:19N 53°42' E 006°07'1316.8
2014-Jul-10 08:33N 53°38' E 005°46'1616.5
2014-Jul-10 07:33N 53°33' E 005°20'1716.6
2014-Jul-10 06:33N 53°27' E 004°54'1515.3
2014-Jul-10 05:33N 53°15' E 004°37'1716.7
2014-Jul-10 04:34N 53°01' E 004°22'1716.6
2014-Jul-10 03:33N 52°47' E 004°09'1716.6
2014-Jul-10 02:33N 52°34' E 003°52'1716.8
2014-Jul-10 01:33N 52°23' E 003°31'1816.8
2014-Jul-10 00:30N 52°05' E 003°25'1516.1
2014-Jul-09 23:32N 51°50' E 003°19'1616.3
2014-Jul-09 22:33N 51°35' E 003°10'1211.5
2014-Jul-09 21:33N 51°24' E 003°05'1414.3
2014-Jul-09 20:34N 51°25' E 003°28'10 9.5
2014-Jul-09 19:34N 51°24' E 003°43'1110.7
2014-Jul-09 18:34N 51°26' E 003°59'1111.2
2014-Jul-09 17:34N 51°21' E 004°15'1 1.0
2014-Jul-09 16:33N 51°20' E 004°16'0 0.0
2014-Jul-09 15:33N 51°20' E 004°16'0 0.0
2014-Jul-09 14:34N 51°20' E 004°16'0 0.0
2014-Jul-09 13:33N 51°20' E 004°16'0 0.0
2014-Jul-09 12:33N 51°20' E 004°16'0 0.0
2014-Jul-09 11:31N 51°20' E 004°16'0 0.0
2014-Jul-09 10:33N 51°20' E 004°16'0 0.0
2014-Jul-09 09:34N 51°20' E 004°16'0 0.0
2014-Jul-09 08:34N 51°20' E 004°16'0 0.0
2014-Jul-09 07:33N 51°20' E 004°16'0 0.0
2014-Jul-09 06:33N 51°20' E 004°16'0 0.0
2014-Jul-09 05:33N 51°20' E 004°16'0 0.0
2014-Jul-09 04:33N 51°20' E 004°16'0 0.0
2014-Jul-09 03:33N 51°20' E 004°16'0 0.0
2014-Jul-09 02:33N 51°20' E 004°16'0 0.0
2014-Jul-09 01:34N 51°20' E 004°16'4 4.0
2014-Jul-09 00:33N 51°24' E 004°13'9 9.2
2014-Jul-08 23:33N 51°25' E 003°58'10 9.7
2014-Jul-08 22:33N 51°24' E 003°42'1414.0
2014-Jul-08 21:33N 51°24' E 003°20'1918.7
2014-Jul-08 20:33N 51°22' E 002°50'1110.7
2014-Jul-08 19:33N 51°22' E 002°33'1717.5
2014-Jul-08 18:34N 51°15' E 002°08'2019.5
2014-Jul-08 17:33N 51°05' E 001°41'1918.8
2014-Jul-08 16:33N 50°49' E 001°25'1919.1
2014-Jul-08 15:33N 50°34' E 001°07'2020.1
2014-Jul-08 14:33N 50°26' E 000°38'2020.4
2014-Jul-08 13:33N 50°19' E 000°08'3919.5
2014-Jul-08 11:33N 50°10' W 000°51'1918.5
2014-Jul-08 10:33N 50°05' W 001°19'  
Track history (hours):
 
Tides and Currents Weather Stations Pressure Air Temp Water Temp Dewpoint Dewpoint Depression Visibility Wind Speed Wind Dir Waves Ship Positions

Cosco Nagoya

Last reported at 2014-Jul-17 17:15 UTC. Time now 2014-Jul-23 13:31 UTC.
Position N 50°01' W 001°43'.

Length 260 m; draft 11.6 m.

Type: Cargo ship. MMSI: 370320000.

Date/timePositionNaut miles runAvg speedWind from/ knotsBaromVisibWave heightAir tempDewpointWater temp
2014-Jul-17 17:15N 50°01' W 001°43'1620.2
2014-Jul-17 16:27N 49°54' W 001°20'1921.7
2014-Jul-17 15:33N 49°46' W 000°53'1919.1
2014-Jul-17 14:33N 49°37' W 000°27'1716.6
2014-Jul-17 13:33N 49°31' W 000°03'9 9.3
2014-Jul-17 12:33N 49°27' E 000°10'0 0.0
2014-Jul-17 11:31N 49°27' E 000°10'0 0.0
2014-Jul-17 10:31N 49°27' E 000°10'0 0.0
2014-Jul-17 09:31N 49°27' E 000°10'0 0.0
2014-Jul-17 08:31N 49°27' E 000°10'0 0.0
2014-Jul-17 07:31N 49°27' E 000°10'0 0.0
2014-Jul-17 06:31N 49°27' E 000°10'0 0.0
2014-Jul-17 05:31N 49°27' E 000°10'0 0.0
2014-Jul-17 04:31N 49°27' E 000°10'0 0.0
2014-Jul-17 03:31N 49°27' E 000°10'0 0.0
2014-Jul-17 02:31N 49°27' E 000°10'0 0.0
2014-Jul-17 01:31N 49°27' E 000°10'0 0.0
2014-Jul-17 00:31N 49°27' E 000°10'0 0.0
2014-Jul-16 23:31N 49°27' E 000°10'1 0.6
2014-Jul-16 22:33N 49°27' E 000°09'1110.9
2014-Jul-16 21:33N 49°31' W 000°06'1312.5
2014-Jul-16 20:33N 49°43' W 000°12'1919.3
2014-Jul-16 19:33N 50°03' W 000°10'2019.7
2014-Jul-16 18:33N 50°22' W 000°06'1818.4
2014-Jul-16 17:33N 50°32' E 000°18'1919.4
2014-Jul-16 16:33N 50°41' E 000°45'2019.8
2014-Jul-16 15:33N 50°54' E 001°09'1716.6
2014-Jul-16 14:33N 51°05' E 001°29'1716.7
2014-Jul-16 13:33N 51°16' E 001°48'1919.4
2014-Jul-16 12:33N 51°33' E 002°05'2120.8
2014-Jul-16 11:34N 51°48' E 002°28'2020.2
2014-Jul-16 10:33N 52°02' E 002°51'2019.4
2014-Jul-16 09:33N 52°03' E 003°23'1818.3
2014-Jul-16 08:33N 52°03' E 003°53'9 9.5
2014-Jul-16 07:33N 51°57' E 004°05'1 1.2
2014-Jul-16 06:30N 51°57' E 004°03'0 0.0
2014-Jul-16 05:33N 51°57' E 004°03'0 0.0
2014-Jul-16 04:33N 51°57' E 004°03'0 0.0
2014-Jul-16 03:30N 51°57' E 004°03'0 0.0
2014-Jul-16 02:33N 51°57' E 004°03'0 0.0
2014-Jul-16 01:33N 51°57' E 004°03'0 0.0
2014-Jul-16 00:33N 51°57' E 004°03'0 0.0
2014-Jul-15 23:33N 51°57' E 004°03'0 0.0
2014-Jul-15 22:33N 51°57' E 004°03'0 0.0
2014-Jul-15 21:33N 51°57' E 004°03'0 0.0
2014-Jul-15 20:33N 51°57' E 004°03'0 0.0
2014-Jul-15 19:33N 51°57' E 004°03'0 0.0
2014-Jul-15 18:33N 51°57' E 004°03'0 0.0
2014-Jul-15 17:33N 51°57' E 004°03'0 0.0
2014-Jul-15 16:33N 51°57' E 004°03'0 0.0
2014-Jul-15 15:33N 51°57' E 004°03'0 0.0
2014-Jul-15 14:30N 51°57' E 004°03'0 0.0
2014-Jul-15 13:33N 51°57' E 004°03'0 0.0
2014-Jul-15 12:30N 51°57' E 004°03'0 0.0
2014-Jul-15 11:33N 51°57' E 004°03'0 0.0
2014-Jul-15 10:30N 51°57' E 004°03'0 0.0
2014-Jul-15 09:29N 51°57' E 004°03'0 0.0
2014-Jul-15 08:32N 51°57' E 004°03'0 0.0
2014-Jul-15 07:32N 51°57' E 004°03'0 0.0
2014-Jul-15 06:32N 51°57' E 004°03'0 0.0
2014-Jul-15 05:32N 51°57' E 004°03'0 0.0
2014-Jul-15 04:32N 51°57' E 004°03'0 0.0
2014-Jul-15 03:29N 51°57' E 004°03'0 0.0
2014-Jul-15 02:32N 51°57' E 004°03'0 0.0
2014-Jul-15 01:32N 51°57' E 004°03'0 0.0
2014-Jul-15 00:32N 51°57' E 004°03'0 0.0
2014-Jul-14 23:32N 51°57' E 004°03'0 0.0
2014-Jul-14 22:32N 51°57' E 004°03'0 0.0
2014-Jul-14 21:29N 51°57' E 004°03'0 0.0
2014-Jul-14 20:32N 51°57' E 004°03'0 0.0
2014-Jul-14 19:32N 51°57' E 004°03'2 1.6
2014-Jul-14 18:33N 51°57' E 004°05'9 8.5
2014-Jul-14 17:33N 52°01' E 003°53'7 7.1
2014-Jul-14 16:33N 52°06' E 003°45'3 2.5
2014-Jul-14 15:32N 52°09' E 003°43'0 0.0
2014-Jul-14 14:32N 52°09' E 003°43'0 0.1
2014-Jul-14 13:32N 52°09' E 003°43'0 0.2
2014-Jul-14 12:26N 52°08' E 003°43'0 0.1
2014-Jul-14 11:32N 52°08' E 003°43'0 0.0
2014-Jul-14 10:32N 52°08' E 003°43'0 0.0
2014-Jul-14 09:29N 52°08' E 003°43'0 0.0
2014-Jul-14 08:32N 52°08' E 003°43'0 0.1
2014-Jul-14 07:32N 52°08' E 003°43'0 0.1
2014-Jul-14 06:21N 52°09' E 003°43'0 0.1
2014-Jul-14 05:33N 52°09' E 003°43'0 0.0
2014-Jul-14 04:32N 52°09' E 003°43'0 0.0
2014-Jul-14 03:29N 52°09' E 003°43'0 0.0
2014-Jul-14 02:29N 52°09' E 003°43'0 0.1
2014-Jul-14 01:32N 52°09' E 003°43'0 0.1
2014-Jul-14 00:29N 52°08' E 003°43'0 0.1
2014-Jul-13 23:33N 52°08' E 003°43'0 0.0
2014-Jul-13 22:32N 52°08' E 003°43'0 0.0
2014-Jul-13 21:33N 52°08' E 003°43'0 0.0
2014-Jul-13 20:32N 52°08' E 003°43'0 0.2
2014-Jul-13 19:08N 52°09' E 003°43'0 0.2
2014-Jul-13 18:32N 52°09' E 003°43'0 0.0
2014-Jul-13 17:32N 52°09' E 003°43'0 0.0
2014-Jul-13 16:32N 52°09' E 003°43'0 0.0
2014-Jul-13 15:32N 52°09' E 003°43'0 0.0
2014-Jul-13 14:32N 52°09' E 003°43'0 0.0
2014-Jul-13 13:32N 52°09' E 003°43'0 0.0
2014-Jul-13 12:29N 52°09' E 003°43'0 0.2
2014-Jul-13 11:26N 52°08' E 003°43'0 0.0
2014-Jul-13 10:32N 52°09' E 003°43'0 0.0
2014-Jul-13 09:32N 52°09' E 003°43'0 0.0
2014-Jul-13 08:32N 52°09' E 003°43'0 0.1
2014-Jul-13 07:32N 52°08' E 003°43'0 0.2
2014-Jul-13 06:32N 52°09' E 003°43'0 0.0
2014-Jul-13 05:32N 52°09' E 003°43'0 0.0
2014-Jul-13 04:32N 52°09' E 003°43'0 0.0
2014-Jul-13 03:32N 52°09' E 003°43'0 0.0
2014-Jul-13 02:32N 52°09' E 003°43'0 0.0
2014-Jul-13 01:32N 52°09' E 003°43'0 0.0
2014-Jul-13 00:32N 52°09' E 003°43'0 0.2
2014-Jul-12 23:32N 52°08' E 003°43'0 0.1
2014-Jul-12 22:33N 52°08' E 003°43'0 0.0
2014-Jul-12 21:32N 52°08' E 003°43'0 0.0
2014-Jul-12 20:32N 52°08' E 003°43'0 0.0
2014-Jul-12 19:32N 52°08' E 003°43'0 0.1
2014-Jul-12 18:32N 52°08' E 003°43'0 0.2
2014-Jul-12 17:32N 52°09' E 003°43'0 0.1
2014-Jul-12 16:32N 52°09' E 003°43'0 0.0
2014-Jul-12 15:33N 52°09' E 003°43'0 0.0
2014-Jul-12 14:33N 52°09' E 003°43'0 0.0
2014-Jul-12 13:32N 52°09' E 003°43'0 0.0
2014-Jul-12 12:30N 52°09' E 003°43'0 0.2
2014-Jul-12 11:32N 52°08' E 003°43'0 0.1
2014-Jul-12 10:32N 52°08' E 003°43'0 0.0
2014-Jul-12 09:29N 52°08' E 003°43'0 0.0
2014-Jul-12 08:32N 52°08' E 003°43'0 0.0
2014-Jul-12 07:32N 52°08' E 003°43'1 0.8
2014-Jul-12 06:32N 52°09' E 003°44'1010.1
2014-Jul-12 05:33N 52°18' E 003°47'1615.7
2014-Jul-12 04:33N 52°34' E 003°52'1514.9
2014-Jul-12 03:33N 52°48' E 003°57'1413.9
2014-Jul-12 02:33N 53°01' E 004°06'1515.1
2014-Jul-12 01:33N 53°11' E 004°25'1616.3
2014-Jul-12 00:33N 53°26' E 004°36'1616.3
2014-Jul-11 23:33N 53°34' E 005°01'1716.9
2014-Jul-11 22:33N 53°40' E 005°27'1616.3
2014-Jul-11 21:33N 53°45' E 005°53'1515.3
2014-Jul-11 20:33N 53°49' E 006°18'1514.6
2014-Jul-11 19:33N 53°54' E 006°42'1514.6
2014-Jul-11 18:33N 53°56' E 007°06'1616.5
2014-Jul-11 17:33N 53°59' E 007°34'1211.5
2014-Jul-11 16:31N 53°52' E 007°51'1414.9
2014-Jul-11 15:33N 53°45' E 008°12'1515.3
2014-Jul-11 14:33N 53°35' E 008°31'0 0.5
2014-Jul-11 13:31N 53°35' E 008°32'0 0.0
2014-Jul-11 12:31N 53°35' E 008°32'0 0.0
2014-Jul-11 11:31N 53°35' E 008°32'0 0.0
2014-Jul-11 10:31N 53°35' E 008°32'0 0.0
2014-Jul-11 09:31N 53°35' E 008°32'0 0.0
2014-Jul-11 08:31N 53°35' E 008°32'0 0.0
2014-Jul-11 07:31N 53°35' E 008°32'0 0.0
2014-Jul-11 06:31N 53°35' E 008°32'0 0.0
2014-Jul-11 05:31N 53°35' E 008°32'0 0.0
2014-Jul-11 04:31N 53°35' E 008°32'0 0.0
2014-Jul-11 03:31N 53°35' E 008°32'0 0.0
2014-Jul-11 02:31N 53°35' E 008°32'0 0.0
2014-Jul-11 01:31N 53°35' E 008°32'0 0.0
2014-Jul-11 00:31N 53°35' E 008°32'0 0.0
2014-Jul-10 23:31N 53°35' E 008°32'0 0.0
2014-Jul-10 22:31N 53°35' E 008°32'0 0.0
2014-Jul-10 21:31N 53°35' E 008°32'0 0.0
2014-Jul-10 20:31N 53°35' E 008°32'0 0.0
2014-Jul-10 19:31N 53°35' E 008°32'0 0.0
2014-Jul-10 18:31N 53°35' E 008°32'0 0.0
2014-Jul-10 17:31N 53°35' E 008°32'0 0.0
2014-Jul-10 16:31N 53°35' E 008°32'2 1.8
2014-Jul-10 15:33N 53°36' E 008°30'1515.5
2014-Jul-10 14:33N 53°46' E 008°10'1514.6
2014-Jul-10 13:33N 53°53' E 007°48'1010.3
2014-Jul-10 12:33N 53°54' E 007°30'3015.3
2014-Jul-10 10:33N 53°48' E 006°40'2016.3
2014-Jul-10 09:19N 53°42' E 006°07'1316.8
2014-Jul-10 08:33N 53°38' E 005°46'1616.5
2014-Jul-10 07:33N 53°33' E 005°20'1716.6
2014-Jul-10 06:33N 53°27' E 004°54'1515.3
2014-Jul-10 05:33N 53°15' E 004°37'1716.7
2014-Jul-10 04:34N 53°01' E 004°22'1716.6
2014-Jul-10 03:33N 52°47' E 004°09'1716.6
2014-Jul-10 02:33N 52°34' E 003°52'1716.8
2014-Jul-10 01:33N 52°23' E 003°31'1816.8
2014-Jul-10 00:30N 52°05' E 003°25'1516.1
2014-Jul-09 23:32N 51°50' E 003°19'1616.3
2014-Jul-09 22:33N 51°35' E 003°10'1211.5
2014-Jul-09 21:33N 51°24' E 003°05'1414.3
2014-Jul-09 20:34N 51°25' E 003°28'10 9.5
2014-Jul-09 19:34N 51°24' E 003°43'1110.7
2014-Jul-09 18:34N 51°26' E 003°59'1111.2
2014-Jul-09 17:34N 51°21' E 004°15'1 1.0
2014-Jul-09 16:33N 51°20' E 004°16'0 0.0
2014-Jul-09 15:33N 51°20' E 004°16'0 0.0
2014-Jul-09 14:34N 51°20' E 004°16'0 0.0
2014-Jul-09 13:33N 51°20' E 004°16'0 0.0
2014-Jul-09 12:33N 51°20' E 004°16'0 0.0
2014-Jul-09 11:31N 51°20' E 004°16'0 0.0
2014-Jul-09 10:33N 51°20' E 004°16'0 0.0
2014-Jul-09 09:34N 51°20' E 004°16'0 0.0
2014-Jul-09 08:34N 51°20' E 004°16'0 0.0
2014-Jul-09 07:33N 51°20' E 004°16'0 0.0
2014-Jul-09 06:33N 51°20' E 004°16'0 0.0
2014-Jul-09 05:33N 51°20' E 004°16'0 0.0
2014-Jul-09 04:33N 51°20' E 004°16'0 0.0
2014-Jul-09 03:33N 51°20' E 004°16'0 0.0
2014-Jul-09 02:33N 51°20' E 004°16'0 0.0
2014-Jul-09 01:34N 51°20' E 004°16'4 4.0
2014-Jul-09 00:33N 51°24' E 004°13'9 9.2
2014-Jul-08 23:33N 51°25' E 003°58'10 9.7
2014-Jul-08 22:33N 51°24' E 003°42'1414.0
2014-Jul-08 21:33N 51°24' E 003°20'1918.7
2014-Jul-08 20:33N 51°22' E 002°50'1110.7
2014-Jul-08 19:33N 51°22' E 002°33'1717.5
2014-Jul-08 18:34N 51°15' E 002°08'2019.5
2014-Jul-08 17:33N 51°05' E 001°41'1918.8
2014-Jul-08 16:33N 50°49' E 001°25'1919.1
2014-Jul-08 15:33N 50°34' E 001°07'2020.1
2014-Jul-08 14:33N 50°26' E 000°38'2020.4
2014-Jul-08 13:33N 50°19' E 000°08'3919.5
2014-Jul-08 11:33N 50°10' W 000°51'1918.5
2014-Jul-08 10:33N 50°05' W 001°19'  

Dump ship's entire track history